Worthing, Texas
Current Conditions -  °F | °C
As of 5:55 AM on Wednesday 28 Jan 2015 (Local Time) from K66R Reporting Station
Clear Clear  
Wind Chill: 43°   Ceiling: Unl
Heat Index: 43°   Visibility: 10mi
Dew Point: 42°   Wind: 0mph
Humidity: 95%   Direction: NA
Pressure: 30.13"   Gusts: NA
Location:  29.3984°N, 96.8256°W
Report Text: K66R 281155Z AUTO 00000KT 10SM CLR 06/06 A3013 RMK AO2 T00630056 10090 20062
Loading
Personal Weather Stations






























Interactive Weather Map New forecast layout! Learn more

10-Day Weather Forecast

Advertisements
Track Severe Weather on mobile